sensor_id;sensor_type;location;lat;lon;timestamp;temperature;humidity
59301;DHT22;45073;52.740;6.784;2023-05-02T00:00:31;12.30;99.90
59301;DHT22;45073;52.740;6.784;2023-05-02T00:02:57;12.30;99.90
59301;DHT22;45073;52.740;6.784;2023-05-02T00:05:23;12.30;99.90
59301;DHT22;45073;52.740;6.784;2023-05-02T00:07:50;12.30;99.90
59301;DHT22;45073;52.740;6.784;2023-05-02T00:10:16;12.30;99.90
59301;DHT22;45073;52.740;6.784;2023-05-02T00:12:41;12.40;99.90
59301;DHT22;45073;52.740;6.784;2023-05-02T00:15:07;12.50;99.90
59301;DHT22;45073;52.740;6.784;2023-05-02T00:17:33;12.50;99.90
59301;DHT22;45073;52.740;6.784;2023-05-02T00:19:59;12.40;99.90
59301;DHT22;45073;52.740;6.784;2023-05-02T00:22:24;12.40;99.90
59301;DHT22;45073;52.740;6.784;2023-05-02T00:24:54;12.40;99.90
59301;DHT22;45073;52.740;6.784;2023-05-02T00:27:20;12.40;99.90
59301;DHT22;45073;52.740;6.784;2023-05-02T00:29:45;12.50;99.90
59301;DHT22;45073;52.740;6.784;2023-05-02T00:32:12;12.50;99.90
59301;DHT22;45073;52.740;6.784;2023-05-02T00:34:38;12.50;99.90
59301;DHT22;45073;52.740;6.784;2023-05-02T00:37:03;12.50;99.90
59301;DHT22;45073;52.740;6.784;2023-05-02T00:39:29;12.50;99.90
59301;DHT22;45073;52.740;6.784;2023-05-02T00:41:58;12.50;99.90
59301;DHT22;45073;52.740;6.784;2023-05-02T00:44:23;12.50;99.90
59301;DHT22;45073;52.740;6.784;2023-05-02T00:46:49;12.50;99.90
59301;DHT22;45073;52.740;6.784;2023-05-02T00:49:15;12.50;99.90
59301;DHT22;45073;52.740;6.784;2023-05-02T00:51:40;12.50;99.90
59301;DHT22;45073;52.740;6.784;2023-05-02T00:54:06;12.50;99.90
59301;DHT22;45073;52.740;6.784;2023-05-02T00:56:32;12.50;99.90
59301;DHT22;45073;52.740;6.784;2023-05-02T00:58:58;12.50;99.90
59301;DHT22;45073;52.740;6.784;2023-05-02T01:01:41;12.40;99.90
59301;DHT22;45073;52.740;6.784;2023-05-02T01:04:22;12.30;99.90
59301;DHT22;45073;52.740;6.784;2023-05-02T01:12:41;12.30;99.90
59301;DHT22;45073;52.740;6.784;2023-05-02T01:15:11;12.20;99.90
59301;DHT22;45073;52.740;6.784;2023-05-02T01:17:40;12.20;99.90
59301;DHT22;45073;52.740;6.784;2023-05-02T01:20:11;12.10;99.90
59301;DHT22;45073;52.740;6.784;2023-05-02T01:22:38;12.10;99.90
59301;DHT22;45073;52.740;6.784;2023-05-02T01:30:43;12.10;99.90
59301;DHT22;45073;52.740;6.784;2023-05-02T01:33:12;12.10;99.90
59301;DHT22;45073;52.740;6.784;2023-05-02T01:35:39;12.00;99.90
59301;DHT22;45073;52.740;6.784;2023-05-02T01:38:05;12.00;99.90
59301;DHT22;45073;52.740;6.784;2023-05-02T01:40:32;12.00;99.90
59301;DHT22;45073;52.740;6.784;2023-05-02T01:42:59;12.00;99.90
59301;DHT22;45073;52.740;6.784;2023-05-02T01:45:30;12.00;99.90
59301;DHT22;45073;52.740;6.784;2023-05-02T01:47:57;12.00;99.90
59301;DHT22;45073;52.740;6.784;2023-05-02T01:50:25;11.90;99.90
59301;DHT22;45073;52.740;6.784;2023-05-02T01:52:52;11.90;99.90
59301;DHT22;45073;52.740;6.784;2023-05-02T01:55:19;11.90;99.90
59301;DHT22;45073;52.740;6.784;2023-05-02T01:57:46;11.90;99.90
59301;DHT22;45073;52.740;6.784;2023-05-02T02:00:15;11.90;99.90
59301;DHT22;45073;52.740;6.784;2023-05-02T02:02:42;11.80;99.90
59301;DHT22;45073;52.740;6.784;2023-05-02T02:05:09;11.80;99.90
59301;DHT22;45073;52.740;6.784;2023-05-02T02:07:37;11.70;99.90
59301;DHT22;45073;52.740;6.784;2023-05-02T02:10:03;11.70;99.90
59301;DHT22;45073;52.740;6.784;2023-05-02T02:12:39;11.70;99.90
59301;DHT22;45073;52.740;6.784;2023-05-02T02:15:12;11.70;99.90
59301;DHT22;45073;52.740;6.784;2023-05-02T02:17:53;11.70;99.90
59301;DHT22;45073;52.740;6.784;2023-05-02T02:20:21;11.70;99.90
59301;DHT22;45073;52.740;6.784;2023-05-02T02:22:47;11.70;99.90
59301;DHT22;45073;52.740;6.784;2023-05-02T02:25:15;11.60;99.90
59301;DHT22;45073;52.740;6.784;2023-05-02T02:27:42;11.60;99.90
59301;DHT22;45073;52.740;6.784;2023-05-02T02:30:09;11.60;99.90
59301;DHT22;45073;52.740;6.784;2023-05-02T02:32:34;11.60;99.90
59301;DHT22;45073;52.740;6.784;2023-05-02T02:35:01;11.50;99.90
59301;DHT22;45073;52.740;6.784;2023-05-02T02:37:31;11.50;99.90
59301;DHT22;45073;52.740;6.784;2023-05-02T02:40:18;11.50;99.90
59301;DHT22;45073;52.740;6.784;2023-05-02T02:48:56;11.50;99.90
59301;DHT22;45073;52.740;6.784;2023-05-02T02:51:44;11.50;99.90
59301;DHT22;45073;52.740;6.784;2023-05-02T02:54:34;11.50;99.90
59301;DHT22;45073;52.740;6.784;2023-05-02T02:57:10;11.40;99.90
59301;DHT22;45073;52.740;6.784;2023-05-02T02:59:45;11.40;99.90
59301;DHT22;45073;52.740;6.784;2023-05-02T03:02:13;11.40;99.90
59301;DHT22;45073;52.740;6.784;2023-05-02T03:04:42;11.40;99.90
59301;DHT22;45073;52.740;6.784;2023-05-02T03:07:09;11.50;99.90
59301;DHT22;45073;52.740;6.784;2023-05-02T03:09:41;11.50;99.90
59301;DHT22;45073;52.740;6.784;2023-05-02T03:12:07;11.40;99.90
59301;DHT22;45073;52.740;6.784;2023-05-02T03:14:33;11.40;99.90
59301;DHT22;45073;52.740;6.784;2023-05-02T03:16:59;11.30;99.90
59301;DHT22;45073;52.740;6.784;2023-05-02T03:19:24;11.10;99.90
59301;DHT22;45073;52.740;6.784;2023-05-02T03:21:50;11.10;99.90
59301;DHT22;45073;52.740;6.784;2023-05-02T03:24:16;11.00;99.90
59301;DHT22;45073;52.740;6.784;2023-05-02T03:26:41;10.90;99.90
59301;DHT22;45073;52.740;6.784;2023-05-02T03:29:07;10.90;99.90
59301;DHT22;45073;52.740;6.784;2023-05-02T03:31:32;10.80;99.90
59301;DHT22;45073;52.740;6.784;2023-05-02T03:33:58;10.80;99.90
59301;DHT22;45073;52.740;6.784;2023-05-02T03:36:24;10.70;99.90
59301;DHT22;45073;52.740;6.784;2023-05-02T03:38:49;10.70;99.90
59301;DHT22;45073;52.740;6.784;2023-05-02T03:41:15;10.60;99.90
59301;DHT22;45073;52.740;6.784;2023-05-02T03:43:40;10.50;99.90
59301;DHT22;45073;52.740;6.784;2023-05-02T03:46:07;10.50;99.90
59301;DHT22;45073;52.740;6.784;2023-05-02T03:48:34;10.50;99.90
59301;DHT22;45073;52.740;6.784;2023-05-02T03:51:01;10.40;99.90
59301;DHT22;45073;52.740;6.784;2023-05-02T03:53:27;10.40;99.90
59301;DHT22;45073;52.740;6.784;2023-05-02T03:55:53;10.30;99.90
59301;DHT22;45073;52.740;6.784;2023-05-02T03:58:18;10.20;99.90
59301;DHT22;45073;52.740;6.784;2023-05-02T04:00:44;10.20;99.90
59301;DHT22;45073;52.740;6.784;2023-05-02T04:03:10;10.10;99.90
59301;DHT22;45073;52.740;6.784;2023-05-02T04:05:35;10.10;99.90
59301;DHT22;45073;52.740;6.784;2023-05-02T04:08:01;10.00;99.90
59301;DHT22;45073;52.740;6.784;2023-05-02T04:10:27;10.00;99.90
59301;DHT22;45073;52.740;6.784;2023-05-02T04:12:53;10.00;99.90
59301;DHT22;45073;52.740;6.784;2023-05-02T04:15:19;9.90;99.90
59301;DHT22;45073;52.740;6.784;2023-05-02T04:17:44;9.90;99.90
59301;DHT22;45073;52.740;6.784;2023-05-02T04:20:11;9.80;99.90
59301;DHT22;45073;52.740;6.784;2023-05-02T04:22:36;9.80;99.90
59301;DHT22;45073;52.740;6.784;2023-05-02T04:25:04;9.70;99.90
59301;DHT22;45073;52.740;6.784;2023-05-02T04:27:31;9.70;99.90
59301;DHT22;45073;52.740;6.784;2023-05-02T04:29:56;9.70;99.90
59301;DHT22;45073;52.740;6.784;2023-05-02T04:32:22;9.60;99.90
59301;DHT22;45073;52.740;6.784;2023-05-02T04:34:48;9.60;99.90
59301;DHT22;45073;52.740;6.784;2023-05-02T04:37:13;9.60;99.90
59301;DHT22;45073;52.740;6.784;2023-05-02T04:39:39;9.50;99.90
59301;DHT22;45073;52.740;6.784;2023-05-02T04:42:05;9.50;99.90
59301;DHT22;45073;52.740;6.784;2023-05-02T04:44:30;9.40;99.90
59301;DHT22;45073;52.740;6.784;2023-05-02T04:46:56;9.40;99.90
59301;DHT22;45073;52.740;6.784;2023-05-02T04:49:21;9.30;99.90
59301;DHT22;45073;52.740;6.784;2023-05-02T04:51:47;9.30;99.90
59301;DHT22;45073;52.740;6.784;2023-05-02T04:54:13;9.30;99.90
59301;DHT22;45073;52.740;6.784;2023-05-02T04:56:38;9.30;99.90
59301;DHT22;45073;52.740;6.784;2023-05-02T04:59:04;9.30;99.90
59301;DHT22;45073;52.740;6.784;2023-05-02T05:01:30;9.30;99.90
59301;DHT22;45073;52.740;6.784;2023-05-02T05:03:56;9.30;99.90
59301;DHT22;45073;52.740;6.784;2023-05-02T05:06:21;9.30;99.90
59301;DHT22;45073;52.740;6.784;2023-05-02T05:08:48;9.30;99.90
59301;DHT22;45073;52.740;6.784;2023-05-02T05:11:13;9.30;99.90
59301;DHT22;45073;52.740;6.784;2023-05-02T05:13:40;9.30;99.90
59301;DHT22;45073;52.740;6.784;2023-05-02T05:16:07;9.30;99.90
59301;DHT22;45073;52.740;6.784;2023-05-02T05:18:32;9.30;99.90
59301;DHT22;45073;52.740;6.784;2023-05-02T05:21:05;9.30;99.90
59301;DHT22;45073;52.740;6.784;2023-05-02T05:23:31;9.30;99.90
59301;DHT22;45073;52.740;6.784;2023-05-02T05:25:57;9.20;99.90
59301;DHT22;45073;52.740;6.784;2023-05-02T05:28:23;9.30;99.90
59301;DHT22;45073;52.740;6.784;2023-05-02T05:30:49;9.30;99.90
59301;DHT22;45073;52.740;6.784;2023-05-02T05:33:16;9.30;99.90
59301;DHT22;45073;52.740;6.784;2023-05-02T05:35:41;9.30;99.90
59301;DHT22;45073;52.740;6.784;2023-05-02T05:38:07;9.30;99.90
59301;DHT22;45073;52.740;6.784;2023-05-02T05:40:33;9.30;99.90
59301;DHT22;45073;52.740;6.784;2023-05-02T05:42:58;9.30;99.90
59301;DHT22;45073;52.740;6.784;2023-05-02T05:45:24;9.30;99.90
59301;DHT22;45073;52.740;6.784;2023-05-02T05:47:49;9.30;99.90
59301;DHT22;45073;52.740;6.784;2023-05-02T05:50:15;9.40;99.90
59301;DHT22;45073;52.740;6.784;2023-05-02T05:52:41;9.40;99.90
59301;DHT22;45073;52.740;6.784;2023-05-02T05:55:07;9.40;99.90
59301;DHT22;45073;52.740;6.784;2023-05-02T05:57:33;9.40;99.90
59301;DHT22;45073;52.740;6.784;2023-05-02T05:59:58;9.40;99.90
59301;DHT22;45073;52.740;6.784;2023-05-02T06:02:24;9.40;99.90
59301;DHT22;45073;52.740;6.784;2023-05-02T06:04:49;9.40;99.90
59301;DHT22;45073;52.740;6.784;2023-05-02T06:07:15;9.50;99.90
59301;DHT22;45073;52.740;6.784;2023-05-02T06:09:41;9.50;99.90
59301;DHT22;45073;52.740;6.784;2023-05-02T06:12:06;9.50;99.90
59301;DHT22;45073;52.740;6.784;2023-05-02T06:14:32;9.60;99.90
59301;DHT22;45073;52.740;6.784;2023-05-02T06:16:58;9.60;99.90
59301;DHT22;45073;52.740;6.784;2023-05-02T06:19:25;9.60;99.90
59301;DHT22;45073;52.740;6.784;2023-05-02T06:21:50;9.60;99.90
59301;DHT22;45073;52.740;6.784;2023-05-02T06:24:16;9.70;99.90
59301;DHT22;45073;52.740;6.784;2023-05-02T06:26:41;9.80;99.90
59301;DHT22;45073;52.740;6.784;2023-05-02T06:29:07;9.80;99.90
59301;DHT22;45073;52.740;6.784;2023-05-02T06:31:33;9.90;99.90
59301;DHT22;45073;52.740;6.784;2023-05-02T06:33:58;9.90;99.90
59301;DHT22;45073;52.740;6.784;2023-05-02T06:36:24;9.90;99.70
59301;DHT22;45073;52.740;6.784;2023-05-02T06:38:50;9.90;99.20
59301;DHT22;45073;52.740;6.784;2023-05-02T06:41:15;9.80;99.90
59301;DHT22;45073;52.740;6.784;2023-05-02T06:43:41;9.80;99.10
59301;DHT22;45073;52.740;6.784;2023-05-02T06:46:07;9.80;98.70
59301;DHT22;45073;52.740;6.784;2023-05-02T06:48:36;9.80;98.40
59301;DHT22;45073;52.740;6.784;2023-05-02T06:51:02;9.80;98.80
59301;DHT22;45073;52.740;6.784;2023-05-02T06:53:29;9.90;98.70
59301;DHT22;45073;52.740;6.784;2023-05-02T06:55:55;9.90;97.90
59301;DHT22;45073;52.740;6.784;2023-05-02T06:58:20;9.90;98.20
59301;DHT22;45073;52.740;6.784;2023-05-02T07:00:46;9.90;97.50
59301;DHT22;45073;52.740;6.784;2023-05-02T07:03:13;9.90;97.50
59301;DHT22;45073;52.740;6.784;2023-05-02T07:05:38;10.00;97.20
59301;DHT22;45073;52.740;6.784;2023-05-02T07:08:04;10.00;97.50
59301;DHT22;45073;52.740;6.784;2023-05-02T07:10:30;10.00;96.30
59301;DHT22;45073;52.740;6.784;2023-05-02T07:12:56;10.00;95.90
59301;DHT22;45073;52.740;6.784;2023-05-02T07:15:21;10.00;97.00
59301;DHT22;45073;52.740;6.784;2023-05-02T07:17:47;9.90;96.60
59301;DHT22;45073;52.740;6.784;2023-05-02T07:20:14;10.00;97.00
59301;DHT22;45073;52.740;6.784;2023-05-02T07:22:40;9.90;96.20
59301;DHT22;45073;52.740;6.784;2023-05-02T07:25:06;9.90;95.90
59301;DHT22;45073;52.740;6.784;2023-05-02T07:27:32;9.90;95.00
59301;DHT22;45073;52.740;6.784;2023-05-02T07:29:57;9.90;95.10
59301;DHT22;45073;52.740;6.784;2023-05-02T07:32:23;9.90;95.50
59301;DHT22;45073;52.740;6.784;2023-05-02T07:34:50;9.90;94.90
59301;DHT22;45073;52.740;6.784;2023-05-02T07:37:18;10.00;94.90
59301;DHT22;45073;52.740;6.784;2023-05-02T07:39:44;10.00;94.60
59301;DHT22;45073;52.740;6.784;2023-05-02T07:42:10;10.00;94.40
59301;DHT22;45073;52.740;6.784;2023-05-02T07:44:35;10.10;94.30
59301;DHT22;45073;52.740;6.784;2023-05-02T07:47:01;10.10;94.20
59301;DHT22;45073;52.740;6.784;2023-05-02T07:49:27;10.20;93.50
59301;DHT22;45073;52.740;6.784;2023-05-02T07:51:52;10.20;93.00
59301;DHT22;45073;52.740;6.784;2023-05-02T07:54:19;10.30;92.90
59301;DHT22;45073;52.740;6.784;2023-05-02T07:56:45;10.30;92.10
59301;DHT22;45073;52.740;6.784;2023-05-02T07:59:11;10.30;91.00
59301;DHT22;45073;52.740;6.784;2023-05-02T08:01:38;10.30;91.10
59301;DHT22;45073;52.740;6.784;2023-05-02T08:04:04;10.30;91.10
59301;DHT22;45073;52.740;6.784;2023-05-02T08:06:30;10.30;90.70
59301;DHT22;45073;52.740;6.784;2023-05-02T08:08:57;10.40;90.70
59301;DHT22;45073;52.740;6.784;2023-05-02T08:11:23;10.30;90.40
59301;DHT22;45073;52.740;6.784;2023-05-02T08:13:50;10.40;90.40
59301;DHT22;45073;52.740;6.784;2023-05-02T08:16:16;10.40;90.10
59301;DHT22;45073;52.740;6.784;2023-05-02T08:18:41;10.40;90.10
59301;DHT22;45073;52.740;6.784;2023-05-02T08:21:07;10.40;89.60
59301;DHT22;45073;52.740;6.784;2023-05-02T08:23:33;10.40;89.50
59301;DHT22;45073;52.740;6.784;2023-05-02T08:25:59;10.40;87.70
59301;DHT22;45073;52.740;6.784;2023-05-02T08:28:25;10.40;88.30
59301;DHT22;45073;52.740;6.784;2023-05-02T08:30:50;10.40;87.90
59301;DHT22;45073;52.740;6.784;2023-05-02T08:33:16;10.50;87.50
59301;DHT22;45073;52.740;6.784;2023-05-02T08:35:42;10.50;86.70
59301;DHT22;45073;52.740;6.784;2023-05-02T08:38:07;10.50;85.90
59301;DHT22;45073;52.740;6.784;2023-05-02T08:40:36;10.60;85.40
59301;DHT22;45073;52.740;6.784;2023-05-02T08:43:03;10.60;84.70
59301;DHT22;45073;52.740;6.784;2023-05-02T08:45:34;10.60;83.20
59301;DHT22;45073;52.740;6.784;2023-05-02T08:48:06;10.70;83.20
59301;DHT22;45073;52.740;6.784;2023-05-02T08:50:43;10.80;82.80
59301;DHT22;45073;52.740;6.784;2023-05-02T08:53:11;10.80;81.10
59301;DHT22;45073;52.740;6.784;2023-05-02T08:55:40;10.90;81.60
59301;DHT22;45073;52.740;6.784;2023-05-02T08:58:07;11.00;80.70
59301;DHT22;45073;52.740;6.784;2023-05-02T09:00:37;11.10;81.00
59301;DHT22;45073;52.740;6.784;2023-05-02T09:03:25;11.20;80.50
59301;DHT22;45073;52.740;6.784;2023-05-02T09:06:06;11.30;78.30
59301;DHT22;45073;52.740;6.784;2023-05-02T09:08:33;11.30;79.50
59301;DHT22;45073;52.740;6.784;2023-05-02T09:11:00;11.50;78.90
59301;DHT22;45073;52.740;6.784;2023-05-02T09:15:59;11.70;77.90
59301;DHT22;45073;52.740;6.784;2023-05-02T09:21:04;11.80;76.90
59301;DHT22;45073;52.740;6.784;2023-05-02T09:23:35;11.90;77.10
59301;DHT22;45073;52.740;6.784;2023-05-02T09:26:13;12.00;76.90
59301;DHT22;45073;52.740;6.784;2023-05-02T09:28:44;12.10;76.20
59301;DHT22;45073;52.740;6.784;2023-05-02T09:31:12;12.20;76.20
59301;DHT22;45073;52.740;6.784;2023-05-02T09:33:39;12.10;75.10
59301;DHT22;45073;52.740;6.784;2023-05-02T09:36:07;12.20;73.00
59301;DHT22;45073;52.740;6.784;2023-05-02T09:38:33;12.30;73.60
59301;DHT22;45073;52.740;6.784;2023-05-02T09:40:59;12.30;74.20
59301;DHT22;45073;52.740;6.784;2023-05-02T09:43:28;12.40;73.70
59301;DHT22;45073;52.740;6.784;2023-05-02T09:45:56;12.40;73.10
59301;DHT22;45073;52.740;6.784;2023-05-02T09:48:22;12.50;73.60
59301;DHT22;45073;52.740;6.784;2023-05-02T09:50:47;12.50;73.80
59301;DHT22;45073;52.740;6.784;2023-05-02T09:53:13;12.50;73.00
59301;DHT22;45073;52.740;6.784;2023-05-02T09:55:39;12.60;71.10
59301;DHT22;45073;52.740;6.784;2023-05-02T09:58:04;12.70;70.40
59301;DHT22;45073;52.740;6.784;2023-05-02T10:00:41;12.70;71.10
59301;DHT22;45073;52.740;6.784;2023-05-02T10:03:07;12.60;71.30
59301;DHT22;45073;52.740;6.784;2023-05-02T10:05:37;12.60;72.40
59301;DHT22;45073;52.740;6.784;2023-05-02T10:08:05;12.50;71.90
59301;DHT22;45073;52.740;6.784;2023-05-02T10:10:34;12.50;72.50
59301;DHT22;45073;52.740;6.784;2023-05-02T10:13:02;12.60;71.50
59301;DHT22;45073;52.740;6.784;2023-05-02T10:15:30;12.50;71.90
59301;DHT22;45073;52.740;6.784;2023-05-02T10:17:58;12.50;72.30
59301;DHT22;45073;52.740;6.784;2023-05-02T10:20:34;12.50;72.40
59301;DHT22;45073;52.740;6.784;2023-05-02T10:23:00;12.50;72.10
59301;DHT22;45073;52.740;6.784;2023-05-02T10:25:28;12.60;72.60
59301;DHT22;45073;52.740;6.784;2023-05-02T10:27:58;12.70;71.60
59301;DHT22;45073;52.740;6.784;2023-05-02T10:30:26;12.90;70.90
59301;DHT22;45073;52.740;6.784;2023-05-02T10:32:52;12.90;71.30
59301;DHT22;45073;52.740;6.784;2023-05-02T10:35:19;12.90;71.60
59301;DHT22;45073;52.740;6.784;2023-05-02T10:37:46;13.00;71.10
59301;DHT22;45073;52.740;6.784;2023-05-02T10:40:12;13.10;71.20
59301;DHT22;45073;52.740;6.784;2023-05-02T10:42:41;13.20;70.20
59301;DHT22;45073;52.740;6.784;2023-05-02T10:45:12;13.30;68.70
59301;DHT22;45073;52.740;6.784;2023-05-02T10:50:45;13.20;69.30
59301;DHT22;45073;52.740;6.784;2023-05-02T10:53:38;13.30;69.90
59301;DHT22;45073;52.740;6.784;2023-05-02T10:56:10;13.30;68.90
59301;DHT22;45073;52.740;6.784;2023-05-02T10:58:35;13.40;69.50
59301;DHT22;45073;52.740;6.784;2023-05-02T11:04:23;13.60;67.90
59301;DHT22;45073;52.740;6.784;2023-05-02T11:11:54;13.70;68.10
59301;DHT22;45073;52.740;6.784;2023-05-02T11:19:27;13.80;66.90
59301;DHT22;45073;52.740;6.784;2023-05-02T11:24:43;13.90;66.90
59301;DHT22;45073;52.740;6.784;2023-05-02T11:29:57;14.00;66.30
59301;DHT22;45073;52.740;6.784;2023-05-02T11:32:24;14.00;66.80
59301;DHT22;45073;52.740;6.784;2023-05-02T11:35:22;14.10;66.70
59301;DHT22;45073;52.740;6.784;2023-05-02T11:38:02;14.20;65.40
59301;DHT22;45073;52.740;6.784;2023-05-02T11:40:29;14.40;65.70
59301;DHT22;45073;52.740;6.784;2023-05-02T11:42:56;14.50;65.20
59301;DHT22;45073;52.740;6.784;2023-05-02T11:45:22;14.40;65.60
59301;DHT22;45073;52.740;6.784;2023-05-02T11:47:57;14.40;65.70
59301;DHT22;45073;52.740;6.784;2023-05-02T11:50:22;14.40;65.20
59301;DHT22;45073;52.740;6.784;2023-05-02T11:52:50;14.40;65.30
59301;DHT22;45073;52.740;6.784;2023-05-02T11:55:16;14.40;65.60
59301;DHT22;45073;52.740;6.784;2023-05-02T11:57:42;14.50;66.10
59301;DHT22;45073;52.740;6.784;2023-05-02T12:00:08;14.60;64.80
59301;DHT22;45073;52.740;6.784;2023-05-02T12:02:39;14.70;64.20
59301;DHT22;45073;52.740;6.784;2023-05-02T12:05:07;14.70;64.50
59301;DHT22;45073;52.740;6.784;2023-05-02T12:07:41;14.70;65.00
59301;DHT22;45073;52.740;6.784;2023-05-02T12:10:07;14.70;64.20
59301;DHT22;45073;52.740;6.784;2023-05-02T12:12:33;14.60;64.00
59301;DHT22;45073;52.740;6.784;2023-05-02T12:15:10;14.60;65.40
59301;DHT22;45073;52.740;6.784;2023-05-02T12:17:45;14.60;64.90
59301;DHT22;45073;52.740;6.784;2023-05-02T12:20:11;14.60;64.80
59301;DHT22;45073;52.740;6.784;2023-05-02T12:22:37;14.60;65.40
59301;DHT22;45073;52.740;6.784;2023-05-02T12:25:06;14.70;64.70
59301;DHT22;45073;52.740;6.784;2023-05-02T12:27:32;14.80;64.20
59301;DHT22;45073;52.740;6.784;2023-05-02T12:29:59;14.70;64.80
59301;DHT22;45073;52.740;6.784;2023-05-02T12:32:34;14.80;64.60
59301;DHT22;45073;52.740;6.784;2023-05-02T12:35:02;14.70;64.30
59301;DHT22;45073;52.740;6.784;2023-05-02T12:37:28;14.70;64.60
59301;DHT22;45073;52.740;6.784;2023-05-02T12:39:54;14.80;64.10
59301;DHT22;45073;52.740;6.784;2023-05-02T12:42:23;14.90;64.30
59301;DHT22;45073;52.740;6.784;2023-05-02T12:44:50;14.80;64.40
59301;DHT22;45073;52.740;6.784;2023-05-02T12:47:21;14.90;64.80
59301;DHT22;45073;52.740;6.784;2023-05-02T12:52:13;14.70;64.30
59301;DHT22;45073;52.740;6.784;2023-05-02T12:54:39;14.80;64.10
59301;DHT22;45073;52.740;6.784;2023-05-02T12:57:04;14.80;63.70
59301;DHT22;45073;52.740;6.784;2023-05-02T12:59:31;14.70;64.00
59301;DHT22;45073;52.740;6.784;2023-05-02T13:01:57;14.60;64.70
59301;DHT22;45073;52.740;6.784;2023-05-02T13:04:37;14.50;64.60
59301;DHT22;45073;52.740;6.784;2023-05-02T13:07:03;14.50;64.90
59301;DHT22;45073;52.740;6.784;2023-05-02T13:09:29;14.50;64.70
59301;DHT22;45073;52.740;6.784;2023-05-02T13:11:54;14.50;65.00
59301;DHT22;45073;52.740;6.784;2023-05-02T13:14:21;14.40;64.90
59301;DHT22;45073;52.740;6.784;2023-05-02T13:16:48;14.40;65.40
59301;DHT22;45073;52.740;6.784;2023-05-02T13:19:14;14.30;66.10
59301;DHT22;45073;52.740;6.784;2023-05-02T13:21:39;14.30;65.90
59301;DHT22;45073;52.740;6.784;2023-05-02T13:24:05;14.30;65.90
59301;DHT22;45073;52.740;6.784;2023-05-02T13:26:31;14.30;66.20
59301;DHT22;45073;52.740;6.784;2023-05-02T13:28:56;14.30;66.20
59301;DHT22;45073;52.740;6.784;2023-05-02T13:31:22;14.30;66.60
59301;DHT22;45073;52.740;6.784;2023-05-02T13:33:48;14.40;66.30
59301;DHT22;45073;52.740;6.784;2023-05-02T13:36:13;14.40;66.00
59301;DHT22;45073;52.740;6.784;2023-05-02T13:38:39;14.50;65.80
59301;DHT22;45073;52.740;6.784;2023-05-02T13:41:04;14.50;65.70
59301;DHT22;45073;52.740;6.784;2023-05-02T13:43:30;14.40;66.00
59301;DHT22;45073;52.740;6.784;2023-05-02T13:45:56;14.40;65.90
59301;DHT22;45073;52.740;6.784;2023-05-02T13:48:21;14.30;66.00
59301;DHT22;45073;52.740;6.784;2023-05-02T13:50:47;14.30;66.40
59301;DHT22;45073;52.740;6.784;2023-05-02T13:53:13;14.20;66.30
59301;DHT22;45073;52.740;6.784;2023-05-02T13:55:38;14.20;66.80
59301;DHT22;45073;52.740;6.784;2023-05-02T13:58:04;14.10;66.70
59301;DHT22;45073;52.740;6.784;2023-05-02T14:00:30;14.00;66.80
59301;DHT22;45073;52.740;6.784;2023-05-02T14:02:55;14.10;66.70
59301;DHT22;45073;52.740;6.784;2023-05-02T14:05:21;14.10;66.40
59301;DHT22;45073;52.740;6.784;2023-05-02T14:07:47;14.00;66.80
59301;DHT22;45073;52.740;6.784;2023-05-02T14:10:12;13.90;67.50
59301;DHT22;45073;52.740;6.784;2023-05-02T14:12:38;13.90;67.60
59301;DHT22;45073;52.740;6.784;2023-05-02T14:15:04;13.80;67.50
59301;DHT22;45073;52.740;6.784;2023-05-02T14:17:30;13.70;67.80
59301;DHT22;45073;52.740;6.784;2023-05-02T14:19:56;13.80;68.20
59301;DHT22;45073;52.740;6.784;2023-05-02T14:22:22;13.80;67.60
59301;DHT22;45073;52.740;6.784;2023-05-02T14:24:47;13.80;67.70
59301;DHT22;45073;52.740;6.784;2023-05-02T14:27:13;13.80;68.00
59301;DHT22;45073;52.740;6.784;2023-05-02T14:29:46;13.80;68.60
59301;DHT22;45073;52.740;6.784;2023-05-02T14:32:12;13.90;68.30
59301;DHT22;45073;52.740;6.784;2023-05-02T14:34:38;13.80;68.20
59301;DHT22;45073;52.740;6.784;2023-05-02T14:37:04;13.80;68.30
59301;DHT22;45073;52.740;6.784;2023-05-02T14:39:30;13.90;68.40
59301;DHT22;45073;52.740;6.784;2023-05-02T14:41:55;13.90;67.80
59301;DHT22;45073;52.740;6.784;2023-05-02T14:44:21;14.00;67.90
59301;DHT22;45073;52.740;6.784;2023-05-02T14:46:47;14.00;67.90
59301;DHT22;45073;52.740;6.784;2023-05-02T14:49:12;14.00;67.50
59301;DHT22;45073;52.740;6.784;2023-05-02T14:51:38;14.00;66.90
59301;DHT22;45073;52.740;6.784;2023-05-02T14:54:04;14.10;67.20
59301;DHT22;45073;52.740;6.784;2023-05-02T14:56:31;14.00;66.80
59301;DHT22;45073;52.740;6.784;2023-05-02T14:58:57;14.00;66.80
59301;DHT22;45073;52.740;6.784;2023-05-02T15:01:23;13.90;66.80
59301;DHT22;45073;52.740;6.784;2023-05-02T15:03:48;13.90;66.70
59301;DHT22;45073;52.740;6.784;2023-05-02T15:06:15;14.00;66.80
59301;DHT22;45073;52.740;6.784;2023-05-02T15:08:41;13.90;67.00
59301;DHT22;45073;52.740;6.784;2023-05-02T15:11:11;13.80;67.70
59301;DHT22;45073;52.740;6.784;2023-05-02T15:13:36;13.90;66.20
59301;DHT22;45073;52.740;6.784;2023-05-02T15:16:03;13.90;66.40
59301;DHT22;45073;52.740;6.784;2023-05-02T15:18:29;13.90;66.70
59301;DHT22;45073;52.740;6.784;2023-05-02T15:20:54;14.00;66.50
59301;DHT22;45073;52.740;6.784;2023-05-02T15:23:20;14.10;66.30
59301;DHT22;45073;52.740;6.784;2023-05-02T15:25:45;14.10;66.40
59301;DHT22;45073;52.740;6.784;2023-05-02T15:28:11;14.10;66.90
59301;DHT22;45073;52.740;6.784;2023-05-02T15:30:37;14.00;67.40
59301;DHT22;45073;52.740;6.784;2023-05-02T15:33:02;14.10;67.20
59301;DHT22;45073;52.740;6.784;2023-05-02T15:35:28;14.10;67.40
59301;DHT22;45073;52.740;6.784;2023-05-02T15:37:54;14.20;67.50
59301;DHT22;45073;52.740;6.784;2023-05-02T15:40:20;14.20;67.00
59301;DHT22;45073;52.740;6.784;2023-05-02T15:42:46;14.20;66.30
59301;DHT22;45073;52.740;6.784;2023-05-02T15:45:11;14.20;66.20
59301;DHT22;45073;52.740;6.784;2023-05-02T15:47:40;14.20;66.20
59301;DHT22;45073;52.740;6.784;2023-05-02T15:50:06;14.30;66.60
59301;DHT22;45073;52.740;6.784;2023-05-02T15:52:32;14.30;66.30
59301;DHT22;45073;52.740;6.784;2023-05-02T15:54:58;14.30;66.20
59301;DHT22;45073;52.740;6.784;2023-05-02T15:57:25;14.20;66.00
59301;DHT22;45073;52.740;6.784;2023-05-02T15:59:51;14.20;65.50
59301;DHT22;45073;52.740;6.784;2023-05-02T16:02:17;14.20;66.10
59301;DHT22;45073;52.740;6.784;2023-05-02T16:04:43;14.10;65.10
59301;DHT22;45073;52.740;6.784;2023-05-02T16:07:09;14.00;65.30
59301;DHT22;45073;52.740;6.784;2023-05-02T16:09:35;13.90;65.60
59301;DHT22;45073;52.740;6.784;2023-05-02T16:12:00;13.80;65.80
59301;DHT22;45073;52.740;6.784;2023-05-02T16:14:26;13.70;65.50
59301;DHT22;45073;52.740;6.784;2023-05-02T16:16:54;13.60;66.10
59301;DHT22;45073;52.740;6.784;2023-05-02T16:19:22;13.50;66.50
59301;DHT22;45073;52.740;6.784;2023-05-02T16:21:48;13.40;66.70